sensor_id;sensor_type;location;lat;lon;timestamp;P1;durP1;ratioP1;P2;durP2;ratioP2
19519;SDS011;9904;52.246;20.898;2023-12-20T00:01:05;58.00;;;27.17;;
19519;SDS011;9904;52.246;20.898;2023-12-20T00:03:32;56.00;;;27.20;;
19519;SDS011;9904;52.246;20.898;2023-12-20T00:06:07;59.17;;;27.67;;
19519;SDS011;9904;52.246;20.898;2023-12-20T00:08:34;60.33;;;29.03;;
19519;SDS011;9904;52.246;20.898;2023-12-20T00:11:01;62.83;;;28.40;;
19519;SDS011;9904;52.246;20.898;2023-12-20T00:13:28;65.77;;;29.43;;
19519;SDS011;9904;52.246;20.898;2023-12-20T00:15:55;59.50;;;29.57;;
19519;SDS011;9904;52.246;20.898;2023-12-20T00:18:21;55.30;;;26.73;;
19519;SDS011;9904;52.246;20.898;2023-12-20T00:20:48;57.67;;;28.37;;
19519;SDS011;9904;52.246;20.898;2023-12-20T00:23:15;55.23;;;28.23;;
19519;SDS011;9904;52.246;20.898;2023-12-20T00:25:41;56.47;;;28.60;;
19519;SDS011;9904;52.246;20.898;2023-12-20T00:28:08;59.27;;;29.60;;
19519;SDS011;9904;52.246;20.898;2023-12-20T00:30:34;59.10;;;29.27;;
19519;SDS011;9904;52.246;20.898;2023-12-20T00:33:02;51.00;;;26.37;;
19519;SDS011;9904;52.246;20.898;2023-12-20T00:35:29;59.10;;;29.53;;
19519;SDS011;9904;52.246;20.898;2023-12-20T00:37:56;58.83;;;28.77;;
19519;SDS011;9904;52.246;20.898;2023-12-20T00:40:24;56.80;;;26.87;;
19519;SDS011;9904;52.246;20.898;2023-12-20T00:42:51;57.17;;;29.17;;
19519;SDS011;9904;52.246;20.898;2023-12-20T00:45:18;60.27;;;28.77;;
19519;SDS011;9904;52.246;20.898;2023-12-20T00:47:44;48.93;;;26.20;;
19519;SDS011;9904;52.246;20.898;2023-12-20T00:50:12;56.60;;;27.83;;
19519;SDS011;9904;52.246;20.898;2023-12-20T00:52:38;56.17;;;26.13;;
19519;SDS011;9904;52.246;20.898;2023-12-20T00:55:05;53.07;;;27.07;;
19519;SDS011;9904;52.246;20.898;2023-12-20T00:57:32;55.87;;;26.87;;
19519;SDS011;9904;52.246;20.898;2023-12-20T00:59:59;58.23;;;26.60;;
19519;SDS011;9904;52.246;20.898;2023-12-20T01:02:25;55.20;;;27.43;;
19519;SDS011;9904;52.246;20.898;2023-12-20T01:04:52;51.77;;;27.00;;
19519;SDS011;9904;52.246;20.898;2023-12-20T01:07:18;52.87;;;26.50;;
19519;SDS011;9904;52.246;20.898;2023-12-20T01:09:45;54.00;;;26.27;;
19519;SDS011;9904;52.246;20.898;2023-12-20T01:12:12;56.87;;;27.67;;
19519;SDS011;9904;52.246;20.898;2023-12-20T01:14:38;53.07;;;25.93;;
19519;SDS011;9904;52.246;20.898;2023-12-20T01:17:06;51.20;;;27.30;;
19519;SDS011;9904;52.246;20.898;2023-12-20T01:19:32;51.07;;;25.70;;
19519;SDS011;9904;52.246;20.898;2023-12-20T01:21:59;53.63;;;27.77;;
19519;SDS011;9904;52.246;20.898;2023-12-20T01:24:26;58.83;;;28.67;;
19519;SDS011;9904;52.246;20.898;2023-12-20T01:26:52;51.20;;;26.87;;
19519;SDS011;9904;52.246;20.898;2023-12-20T01:29:19;56.53;;;26.40;;
19519;SDS011;9904;52.246;20.898;2023-12-20T01:31:46;48.83;;;25.63;;
19519;SDS011;9904;52.246;20.898;2023-12-20T01:34:13;51.57;;;26.33;;
19519;SDS011;9904;52.246;20.898;2023-12-20T01:36:39;52.63;;;26.47;;
19519;SDS011;9904;52.246;20.898;2023-12-20T01:39:06;46.93;;;25.47;;
19519;SDS011;9904;52.246;20.898;2023-12-20T01:41:50;52.73;;;25.33;;
19519;SDS011;9904;52.246;20.898;2023-12-20T01:44:17;51.90;;;25.50;;
19519;SDS011;9904;52.246;20.898;2023-12-20T01:46:43;47.70;;;25.57;;
19519;SDS011;9904;52.246;20.898;2023-12-20T01:49:10;51.67;;;25.50;;
19519;SDS011;9904;52.246;20.898;2023-12-20T01:51:37;50.57;;;25.63;;
19519;SDS011;9904;52.246;20.898;2023-12-20T01:54:04;47.37;;;23.80;;
19519;SDS011;9904;52.246;20.898;2023-12-20T01:56:31;46.07;;;23.40;;
19519;SDS011;9904;52.246;20.898;2023-12-20T01:58:58;41.87;;;22.13;;
19519;SDS011;9904;52.246;20.898;2023-12-20T02:01:26;39.60;;;20.90;;
19519;SDS011;9904;52.246;20.898;2023-12-20T02:03:55;42.43;;;22.37;;
19519;SDS011;9904;52.246;20.898;2023-12-20T02:06:23;41.00;;;21.93;;
19519;SDS011;9904;52.246;20.898;2023-12-20T02:08:55;42.97;;;21.83;;
19519;SDS011;9904;52.246;20.898;2023-12-20T02:11:23;43.13;;;21.93;;
19519;SDS011;9904;52.246;20.898;2023-12-20T02:13:49;41.47;;;20.80;;
19519;SDS011;9904;52.246;20.898;2023-12-20T02:16:16;41.33;;;21.20;;
19519;SDS011;9904;52.246;20.898;2023-12-20T02:18:43;39.63;;;20.70;;
19519;SDS011;9904;52.246;20.898;2023-12-20T02:21:11;41.20;;;20.40;;
19519;SDS011;9904;52.246;20.898;2023-12-20T02:23:37;37.73;;;18.93;;
19519;SDS011;9904;52.246;20.898;2023-12-20T02:26:04;36.47;;;18.57;;
19519;SDS011;9904;52.246;20.898;2023-12-20T02:28:31;36.17;;;17.13;;
19519;SDS011;9904;52.246;20.898;2023-12-20T02:30:58;31.27;;;16.37;;
19519;SDS011;9904;52.246;20.898;2023-12-20T02:33:25;28.80;;;15.10;;
19519;SDS011;9904;52.246;20.898;2023-12-20T02:35:51;26.63;;;13.93;;
19519;SDS011;9904;52.246;20.898;2023-12-20T02:38:19;24.93;;;13.10;;
19519;SDS011;9904;52.246;20.898;2023-12-20T02:40:45;16.67;;;10.37;;
19519;SDS011;9904;52.246;20.898;2023-12-20T02:43:15;19.17;;;11.07;;
19519;SDS011;9904;52.246;20.898;2023-12-20T02:45:42;17.50;;;9.50;;
19519;SDS011;9904;52.246;20.898;2023-12-20T02:48:09;20.13;;;10.17;;
19519;SDS011;9904;52.246;20.898;2023-12-20T02:50:35;16.10;;;9.07;;
19519;SDS011;9904;52.246;20.898;2023-12-20T02:53:02;16.80;;;8.87;;
19519;SDS011;9904;52.246;20.898;2023-12-20T02:55:28;18.67;;;8.87;;
19519;SDS011;9904;52.246;20.898;2023-12-20T02:57:55;15.27;;;8.80;;
19519;SDS011;9904;52.246;20.898;2023-12-20T03:00:22;16.83;;;9.00;;
19519;SDS011;9904;52.246;20.898;2023-12-20T03:02:48;15.60;;;9.17;;
19519;SDS011;9904;52.246;20.898;2023-12-20T03:05:15;16.10;;;9.30;;
19519;SDS011;9904;52.246;20.898;2023-12-20T03:07:41;16.40;;;9.70;;
19519;SDS011;9904;52.246;20.898;2023-12-20T03:10:08;17.73;;;9.63;;
19519;SDS011;9904;52.246;20.898;2023-12-20T03:12:45;14.97;;;9.40;;
19519;SDS011;9904;52.246;20.898;2023-12-20T03:15:12;16.57;;;9.83;;
19519;SDS011;9904;52.246;20.898;2023-12-20T03:17:38;17.57;;;9.80;;
19519;SDS011;9904;52.246;20.898;2023-12-20T03:20:05;16.10;;;9.20;;
19519;SDS011;9904;52.246;20.898;2023-12-20T03:22:33;17.30;;;9.30;;
19519;SDS011;9904;52.246;20.898;2023-12-20T03:24:59;14.93;;;9.07;;
19519;SDS011;9904;52.246;20.898;2023-12-20T03:27:26;16.67;;;9.10;;
19519;SDS011;9904;52.246;20.898;2023-12-20T03:29:52;15.93;;;9.13;;
19519;SDS011;9904;52.246;20.898;2023-12-20T03:32:19;16.97;;;8.50;;
19519;SDS011;9904;52.246;20.898;2023-12-20T03:34:46;16.23;;;9.50;;
19519;SDS011;9904;52.246;20.898;2023-12-20T03:37:12;17.10;;;10.07;;
19519;SDS011;9904;52.246;20.898;2023-12-20T03:39:39;16.03;;;8.80;;
19519;SDS011;9904;52.246;20.898;2023-12-20T03:42:06;16.33;;;9.00;;
19519;SDS011;9904;52.246;20.898;2023-12-20T03:44:32;16.00;;;8.97;;
19519;SDS011;9904;52.246;20.898;2023-12-20T03:46:59;14.60;;;9.17;;
19519;SDS011;9904;52.246;20.898;2023-12-20T03:49:25;14.63;;;8.97;;
19519;SDS011;9904;52.246;20.898;2023-12-20T03:51:52;16.10;;;9.13;;
19519;SDS011;9904;52.246;20.898;2023-12-20T03:54:18;14.83;;;8.87;;
19519;SDS011;9904;52.246;20.898;2023-12-20T03:56:45;15.80;;;9.47;;
19519;SDS011;9904;52.246;20.898;2023-12-20T03:59:11;17.03;;;9.63;;
19519;SDS011;9904;52.246;20.898;2023-12-20T04:01:38;14.97;;;9.40;;
19519;SDS011;9904;52.246;20.898;2023-12-20T04:04:05;15.63;;;9.20;;
19519;SDS011;9904;52.246;20.898;2023-12-20T04:06:31;16.87;;;9.43;;
19519;SDS011;9904;52.246;20.898;2023-12-20T04:08:58;15.20;;;9.03;;
19519;SDS011;9904;52.246;20.898;2023-12-20T04:11:24;17.23;;;9.70;;
19519;SDS011;9904;52.246;20.898;2023-12-20T04:13:51;18.43;;;10.13;;
19519;SDS011;9904;52.246;20.898;2023-12-20T04:16:18;19.77;;;11.13;;
19519;SDS011;9904;52.246;20.898;2023-12-20T04:18:44;20.03;;;11.43;;
19519;SDS011;9904;52.246;20.898;2023-12-20T04:21:11;23.03;;;11.60;;
19519;SDS011;9904;52.246;20.898;2023-12-20T04:23:38;22.77;;;12.83;;
19519;SDS011;9904;52.246;20.898;2023-12-20T04:26:04;24.20;;;13.23;;
19519;SDS011;9904;52.246;20.898;2023-12-20T04:28:31;27.37;;;14.10;;
19519;SDS011;9904;52.246;20.898;2023-12-20T04:30:57;29.80;;;15.17;;
19519;SDS011;9904;52.246;20.898;2023-12-20T04:33:24;25.73;;;14.90;;
19519;SDS011;9904;52.246;20.898;2023-12-20T04:35:51;30.53;;;16.03;;
19519;SDS011;9904;52.246;20.898;2023-12-20T04:38:17;30.93;;;16.23;;
19519;SDS011;9904;52.246;20.898;2023-12-20T04:40:44;31.07;;;15.33;;
19519;SDS011;9904;52.246;20.898;2023-12-20T04:43:11;29.70;;;15.87;;
19519;SDS011;9904;52.246;20.898;2023-12-20T04:45:37;28.03;;;14.77;;
19519;SDS011;9904;52.246;20.898;2023-12-20T04:48:04;30.83;;;14.73;;
19519;SDS011;9904;52.246;20.898;2023-12-20T04:50:31;27.77;;;15.03;;
19519;SDS011;9904;52.246;20.898;2023-12-20T04:52:57;29.43;;;15.43;;
19519;SDS011;9904;52.246;20.898;2023-12-20T04:55:24;32.00;;;14.87;;
19519;SDS011;9904;52.246;20.898;2023-12-20T04:57:50;30.37;;;15.63;;
19519;SDS011;9904;52.246;20.898;2023-12-20T05:00:17;30.07;;;15.47;;
19519;SDS011;9904;52.246;20.898;2023-12-20T05:02:44;28.03;;;14.93;;
19519;SDS011;9904;52.246;20.898;2023-12-20T05:05:10;29.30;;;15.00;;
19519;SDS011;9904;52.246;20.898;2023-12-20T05:07:37;31.63;;;15.77;;
19519;SDS011;9904;52.246;20.898;2023-12-20T05:10:04;33.80;;;15.97;;
19519;SDS011;9904;52.246;20.898;2023-12-20T05:12:32;29.57;;;15.23;;
19519;SDS011;9904;52.246;20.898;2023-12-20T05:14:58;32.17;;;16.17;;
19519;SDS011;9904;52.246;20.898;2023-12-20T05:17:25;34.43;;;16.27;;
19519;SDS011;9904;52.246;20.898;2023-12-20T05:19:52;31.93;;;16.17;;
19519;SDS011;9904;52.246;20.898;2023-12-20T05:22:19;32.13;;;16.07;;
19519;SDS011;9904;52.246;20.898;2023-12-20T05:24:46;33.60;;;17.50;;
19519;SDS011;9904;52.246;20.898;2023-12-20T05:27:13;35.27;;;17.30;;
19519;SDS011;9904;52.246;20.898;2023-12-20T05:29:39;33.60;;;17.83;;
19519;SDS011;9904;52.246;20.898;2023-12-20T05:32:06;32.83;;;16.30;;
19519;SDS011;9904;52.246;20.898;2023-12-20T05:34:33;36.27;;;18.07;;
19519;SDS011;9904;52.246;20.898;2023-12-20T05:36:59;34.40;;;17.30;;
19519;SDS011;9904;52.246;20.898;2023-12-20T05:39:28;35.50;;;17.77;;
19519;SDS011;9904;52.246;20.898;2023-12-20T05:41:54;36.67;;;18.23;;
19519;SDS011;9904;52.246;20.898;2023-12-20T05:44:21;38.53;;;18.50;;
19519;SDS011;9904;52.246;20.898;2023-12-20T05:46:47;36.83;;;19.00;;
19519;SDS011;9904;52.246;20.898;2023-12-20T05:49:14;42.20;;;20.47;;
19519;SDS011;9904;52.246;20.898;2023-12-20T05:51:40;46.27;;;19.97;;
19519;SDS011;9904;52.246;20.898;2023-12-20T05:54:07;39.93;;;19.33;;
19519;SDS011;9904;52.246;20.898;2023-12-20T05:56:35;39.10;;;18.23;;
19519;SDS011;9904;52.246;20.898;2023-12-20T05:59:01;45.93;;;19.00;;
19519;SDS011;9904;52.246;20.898;2023-12-20T06:01:28;40.07;;;18.57;;
19519;SDS011;9904;52.246;20.898;2023-12-20T06:03:55;40.63;;;18.60;;
19519;SDS011;9904;52.246;20.898;2023-12-20T06:06:22;38.53;;;18.83;;
19519;SDS011;9904;52.246;20.898;2023-12-20T06:08:49;43.90;;;19.10;;
19519;SDS011;9904;52.246;20.898;2023-12-20T06:11:15;46.50;;;20.27;;
19519;SDS011;9904;52.246;20.898;2023-12-20T06:13:42;43.00;;;18.37;;
19519;SDS011;9904;52.246;20.898;2023-12-20T06:16:08;43.20;;;18.43;;
19519;SDS011;9904;52.246;20.898;2023-12-20T06:18:35;41.40;;;18.60;;
19519;SDS011;9904;52.246;20.898;2023-12-20T06:21:04;39.37;;;18.23;;
19519;SDS011;9904;52.246;20.898;2023-12-20T06:23:30;41.83;;;18.37;;
19519;SDS011;9904;52.246;20.898;2023-12-20T06:25:57;38.40;;;17.50;;
19519;SDS011;9904;52.246;20.898;2023-12-20T06:28:24;39.80;;;17.47;;
19519;SDS011;9904;52.246;20.898;2023-12-20T06:30:50;37.37;;;17.77;;
19519;SDS011;9904;52.246;20.898;2023-12-20T06:33:18;37.77;;;16.27;;
19519;SDS011;9904;52.246;20.898;2023-12-20T06:35:47;37.17;;;16.70;;
19519;SDS011;9904;52.246;20.898;2023-12-20T06:38:14;35.40;;;16.47;;
19519;SDS011;9904;52.246;20.898;2023-12-20T06:40:41;38.53;;;16.27;;
19519;SDS011;9904;52.246;20.898;2023-12-20T06:43:09;38.00;;;16.57;;
19519;SDS011;9904;52.246;20.898;2023-12-20T06:45:49;37.97;;;15.70;;
19519;SDS011;9904;52.246;20.898;2023-12-20T06:48:15;38.40;;;16.73;;
19519;SDS011;9904;52.246;20.898;2023-12-20T06:50:42;37.90;;;16.63;;
19519;SDS011;9904;52.246;20.898;2023-12-20T06:53:09;39.20;;;16.93;;
19519;SDS011;9904;52.246;20.898;2023-12-20T06:55:35;34.97;;;16.27;;
19519;SDS011;9904;52.246;20.898;2023-12-20T06:58:04;40.40;;;19.47;;
19519;SDS011;9904;52.246;20.898;2023-12-20T07:00:31;39.70;;;16.77;;
19519;SDS011;9904;52.246;20.898;2023-12-20T07:02:59;39.00;;;18.13;;
19519;SDS011;9904;52.246;20.898;2023-12-20T07:05:25;42.87;;;17.70;;
19519;SDS011;9904;52.246;20.898;2023-12-20T07:07:53;42.47;;;18.50;;
19519;SDS011;9904;52.246;20.898;2023-12-20T07:10:20;37.13;;;17.07;;
19519;SDS011;9904;52.246;20.898;2023-12-20T07:12:47;42.67;;;18.00;;
19519;SDS011;9904;52.246;20.898;2023-12-20T07:15:15;39.50;;;17.97;;
19519;SDS011;9904;52.246;20.898;2023-12-20T07:17:41;42.03;;;17.57;;
19519;SDS011;9904;52.246;20.898;2023-12-20T07:20:09;46.30;;;17.83;;
19519;SDS011;9904;52.246;20.898;2023-12-20T07:22:37;43.13;;;19.30;;
19519;SDS011;9904;52.246;20.898;2023-12-20T07:25:04;43.97;;;17.97;;
19519;SDS011;9904;52.246;20.898;2023-12-20T07:27:31;43.33;;;17.17;;
19519;SDS011;9904;52.246;20.898;2023-12-20T07:29:58;38.77;;;16.57;;
19519;SDS011;9904;52.246;20.898;2023-12-20T07:32:24;38.73;;;16.57;;
19519;SDS011;9904;52.246;20.898;2023-12-20T07:34:51;43.03;;;18.33;;
19519;SDS011;9904;52.246;20.898;2023-12-20T07:37:18;40.13;;;17.37;;
19519;SDS011;9904;52.246;20.898;2023-12-20T07:39:45;38.30;;;17.03;;
19519;SDS011;9904;52.246;20.898;2023-12-20T07:42:11;43.40;;;16.97;;
19519;SDS011;9904;52.246;20.898;2023-12-20T07:44:38;41.53;;;16.77;;
19519;SDS011;9904;52.246;20.898;2023-12-20T07:47:04;39.00;;;17.23;;
19519;SDS011;9904;52.246;20.898;2023-12-20T07:49:31;45.00;;;17.57;;
19519;SDS011;9904;52.246;20.898;2023-12-20T07:51:58;36.17;;;16.33;;
19519;SDS011;9904;52.246;20.898;2023-12-20T07:54:25;39.37;;;16.63;;
19519;SDS011;9904;52.246;20.898;2023-12-20T07:56:52;37.20;;;16.70;;
19519;SDS011;9904;52.246;20.898;2023-12-20T07:59:18;35.43;;;16.03;;
19519;SDS011;9904;52.246;20.898;2023-12-20T08:01:57;35.50;;;16.50;;
19519;SDS011;9904;52.246;20.898;2023-12-20T08:04:24;32.37;;;15.50;;
19519;SDS011;9904;52.246;20.898;2023-12-20T08:06:51;41.77;;;16.77;;
19519;SDS011;9904;52.246;20.898;2023-12-20T08:09:18;37.10;;;16.17;;
19519;SDS011;9904;52.246;20.898;2023-12-20T08:11:46;36.80;;;16.23;;
19519;SDS011;9904;52.246;20.898;2023-12-20T08:14:13;35.57;;;15.37;;
19519;SDS011;9904;52.246;20.898;2023-12-20T08:16:41;34.23;;;16.03;;
19519;SDS011;9904;52.246;20.898;2023-12-20T08:19:07;34.23;;;14.93;;
19519;SDS011;9904;52.246;20.898;2023-12-20T08:21:34;35.07;;;15.27;;
19519;SDS011;9904;52.246;20.898;2023-12-20T08:24:04;35.30;;;15.17;;
19519;SDS011;9904;52.246;20.898;2023-12-20T08:26:31;34.30;;;14.43;;
19519;SDS011;9904;52.246;20.898;2023-12-20T08:28:58;37.87;;;14.70;;
19519;SDS011;9904;52.246;20.898;2023-12-20T08:31:27;31.47;;;14.57;;
19519;SDS011;9904;52.246;20.898;2023-12-20T08:33:54;34.30;;;14.70;;
19519;SDS011;9904;52.246;20.898;2023-12-20T08:36:21;34.10;;;14.97;;
19519;SDS011;9904;52.246;20.898;2023-12-20T08:38:50;30.17;;;13.90;;
19519;SDS011;9904;52.246;20.898;2023-12-20T08:41:17;34.90;;;15.00;;
19519;SDS011;9904;52.246;20.898;2023-12-20T08:43:44;35.73;;;16.00;;
19519;SDS011;9904;52.246;20.898;2023-12-20T08:46:11;33.77;;;14.37;;
19519;SDS011;9904;52.246;20.898;2023-12-20T08:48:38;36.90;;;14.70;;
19519;SDS011;9904;52.246;20.898;2023-12-20T08:51:05;32.57;;;14.93;;
19519;SDS011;9904;52.246;20.898;2023-12-20T08:53:35;32.27;;;14.23;;
19519;SDS011;9904;52.246;20.898;2023-12-20T08:56:02;37.50;;;14.90;;
19519;SDS011;9904;52.246;20.898;2023-12-20T08:58:29;37.27;;;14.47;;
19519;SDS011;9904;52.246;20.898;2023-12-20T09:00:56;31.93;;;13.80;;
19519;SDS011;9904;52.246;20.898;2023-12-20T09:03:24;32.60;;;14.23;;
19519;SDS011;9904;52.246;20.898;2023-12-20T09:05:51;28.20;;;12.93;;
19519;SDS011;9904;52.246;20.898;2023-12-20T09:08:17;29.30;;;13.60;;
19519;SDS011;9904;52.246;20.898;2023-12-20T09:10:44;27.60;;;12.87;;
19519;SDS011;9904;52.246;20.898;2023-12-20T09:13:11;29.17;;;13.27;;
19519;SDS011;9904;52.246;20.898;2023-12-20T09:15:38;30.53;;;12.93;;
19519;SDS011;9904;52.246;20.898;2023-12-20T09:18:05;38.00;;;13.47;;
19519;SDS011;9904;52.246;20.898;2023-12-20T09:20:32;36.73;;;13.90;;
19519;SDS011;9904;52.246;20.898;2023-12-20T09:23:00;31.33;;;14.67;;
19519;SDS011;9904;52.246;20.898;2023-12-20T09:25:27;33.00;;;14.50;;
19519;SDS011;9904;52.246;20.898;2023-12-20T09:27:55;40.07;;;14.83;;
19519;SDS011;9904;52.246;20.898;2023-12-20T09:30:21;30.27;;;13.60;;
19519;SDS011;9904;52.246;20.898;2023-12-20T09:32:55;29.23;;;13.00;;
19519;SDS011;9904;52.246;20.898;2023-12-20T09:35:22;29.70;;;13.90;;
19519;SDS011;9904;52.246;20.898;2023-12-20T09:37:50;36.07;;;13.93;;
19519;SDS011;9904;52.246;20.898;2023-12-20T09:40:19;31.73;;;13.67;;
19519;SDS011;9904;52.246;20.898;2023-12-20T09:42:56;34.17;;;13.40;;
19519;SDS011;9904;52.246;20.898;2023-12-20T09:45:24;29.80;;;13.00;;
19519;SDS011;9904;52.246;20.898;2023-12-20T09:47:54;25.37;;;13.03;;
19519;SDS011;9904;52.246;20.898;2023-12-20T09:50:22;31.33;;;13.53;;
19519;SDS011;9904;52.246;20.898;2023-12-20T09:52:50;26.53;;;12.50;;
19519;SDS011;9904;52.246;20.898;2023-12-20T09:55:18;26.33;;;12.70;;
19519;SDS011;9904;52.246;20.898;2023-12-20T09:57:46;25.90;;;12.70;;
19519;SDS011;9904;52.246;20.898;2023-12-20T10:00:14;24.57;;;12.30;;
19519;SDS011;9904;52.246;20.898;2023-12-20T10:05:26;24.80;;;12.43;;
19519;SDS011;9904;52.246;20.898;2023-12-20T10:07:58;23.77;;;11.83;;
19519;SDS011;9904;52.246;20.898;2023-12-20T10:10:26;25.90;;;13.20;;
19519;SDS011;9904;52.246;20.898;2023-12-20T10:13:08;27.33;;;12.33;;
19519;SDS011;9904;52.246;20.898;2023-12-20T10:15:36;28.80;;;13.57;;
19519;SDS011;9904;52.246;20.898;2023-12-20T10:18:04;25.17;;;13.03;;
19519;SDS011;9904;52.246;20.898;2023-12-20T10:20:31;26.50;;;12.87;;
19519;SDS011;9904;52.246;20.898;2023-12-20T10:22:59;24.87;;;13.00;;
19519;SDS011;9904;52.246;20.898;2023-12-20T10:25:27;24.03;;;11.70;;
19519;SDS011;9904;52.246;20.898;2023-12-20T10:28:10;25.97;;;12.33;;
19519;SDS011;9904;52.246;20.898;2023-12-20T10:30:40;24.03;;;12.30;;
19519;SDS011;9904;52.246;20.898;2023-12-20T10:33:08;25.43;;;12.97;;
19519;SDS011;9904;52.246;20.898;2023-12-20T10:35:37;26.97;;;13.43;;
19519;SDS011;9904;52.246;20.898;2023-12-20T10:38:07;29.00;;;14.37;;
19519;SDS011;9904;52.246;20.898;2023-12-20T10:40:36;25.90;;;13.47;;
19519;SDS011;9904;52.246;20.898;2023-12-20T10:43:04;22.80;;;11.43;;
19519;SDS011;9904;52.246;20.898;2023-12-20T10:45:32;25.83;;;12.63;;
19519;SDS011;9904;52.246;20.898;2023-12-20T10:47:58;23.07;;;12.27;;
19519;SDS011;9904;52.246;20.898;2023-12-20T10:50:26;24.67;;;11.77;;
19519;SDS011;9904;52.246;20.898;2023-12-20T10:52:55;27.87;;;13.30;;
19519;SDS011;9904;52.246;20.898;2023-12-20T10:55:23;23.60;;;12.00;;
19519;SDS011;9904;52.246;20.898;2023-12-20T10:58:24;25.23;;;11.90;;
19519;SDS011;9904;52.246;20.898;2023-12-20T11:00:46;24.13;;;12.03;;
19519;SDS011;9904;52.246;20.898;2023-12-20T11:03:16;24.80;;;12.10;;
19519;SDS011;9904;52.246;20.898;2023-12-20T11:05:49;21.87;;;11.70;;
19519;SDS011;9904;52.246;20.898;2023-12-20T11:11:07;25.27;;;11.43;;
19519;SDS011;9904;52.246;20.898;2023-12-20T11:16:45;28.10;;;12.30;;
19519;SDS011;9904;52.246;20.898;2023-12-20T11:19:20;23.57;;;11.00;;
19519;SDS011;9904;52.246;20.898;2023-12-20T11:21:47;22.53;;;11.30;;
19519;SDS011;9904;52.246;20.898;2023-12-20T11:24:15;26.30;;;12.47;;
19519;SDS011;9904;52.246;20.898;2023-12-20T11:26:46;27.73;;;11.27;;
19519;SDS011;9904;52.246;20.898;2023-12-20T11:29:29;22.83;;;10.80;;
19519;SDS011;9904;52.246;20.898;2023-12-20T11:32:27;23.63;;;11.17;;
19519;SDS011;9904;52.246;20.898;2023-12-20T11:35:00;21.87;;;10.80;;
19519;SDS011;9904;52.246;20.898;2023-12-20T11:37:43;18.97;;;10.37;;
19519;SDS011;9904;52.246;20.898;2023-12-20T11:40:17;19.97;;;10.40;;
19519;SDS011;9904;52.246;20.898;2023-12-20T11:42:45;21.97;;;10.70;;
19519;SDS011;9904;52.246;20.898;2023-12-20T11:45:19;20.90;;;11.57;;
19519;SDS011;9904;52.246;20.898;2023-12-20T11:47:49;23.57;;;12.03;;
19519;SDS011;9904;52.246;20.898;2023-12-20T11:50:17;22.60;;;11.00;;
19519;SDS011;9904;52.246;20.898;2023-12-20T11:52:45;24.60;;;11.93;;
19519;SDS011;9904;52.246;20.898;2023-12-20T11:55:11;25.43;;;12.20;;
19519;SDS011;9904;52.246;20.898;2023-12-20T11:57:39;24.20;;;12.77;;
19519;SDS011;9904;52.246;20.898;2023-12-20T12:00:05;24.87;;;12.77;;
19519;SDS011;9904;52.246;20.898;2023-12-20T12:02:32;23.30;;;12.50;;
19519;SDS011;9904;52.246;20.898;2023-12-20T12:04:59;24.10;;;12.53;;
19519;SDS011;9904;52.246;20.898;2023-12-20T12:07:26;27.10;;;13.77;;
19519;SDS011;9904;52.246;20.898;2023-12-20T12:09:53;27.33;;;14.10;;
19519;SDS011;9904;52.246;20.898;2023-12-20T12:12:20;26.23;;;14.17;;
19519;SDS011;9904;52.246;20.898;2023-12-20T12:14:47;25.63;;;13.67;;
19519;SDS011;9904;52.246;20.898;2023-12-20T12:17:15;27.90;;;14.67;;
19519;SDS011;9904;52.246;20.898;2023-12-20T12:19:42;27.57;;;13.80;;
19519;SDS011;9904;52.246;20.898;2023-12-20T12:22:10;29.63;;;14.60;;
19519;SDS011;9904;52.246;20.898;2023-12-20T12:24:42;28.60;;;14.07;;
19519;SDS011;9904;52.246;20.898;2023-12-20T12:27:10;27.37;;;13.70;;
19519;SDS011;9904;52.246;20.898;2023-12-20T12:29:38;23.77;;;11.10;;
19519;SDS011;9904;52.246;20.898;2023-12-20T12:32:06;20.33;;;12.60;;
19519;SDS011;9904;52.246;20.898;2023-12-20T12:34:34;23.90;;;11.77;;
19519;SDS011;9904;52.246;20.898;2023-12-20T12:37:02;20.83;;;11.40;;
19519;SDS011;9904;52.246;20.898;2023-12-20T12:39:30;22.60;;;12.17;;
19519;SDS011;9904;52.246;20.898;2023-12-20T12:41:57;25.60;;;11.33;;
19519;SDS011;9904;52.246;20.898;2023-12-20T12:44:23;25.67;;;12.87;;
19519;SDS011;9904;52.246;20.898;2023-12-20T12:46:51;31.90;;;13.63;;
19519;SDS011;9904;52.246;20.898;2023-12-20T12:49:20;32.13;;;14.13;;
19519;SDS011;9904;52.246;20.898;2023-12-20T12:51:50;28.13;;;13.50;;
19519;SDS011;9904;52.246;20.898;2023-12-20T12:54:17;24.00;;;12.40;;
19519;SDS011;9904;52.246;20.898;2023-12-20T12:56:44;30.13;;;14.27;;
19519;SDS011;9904;52.246;20.898;2023-12-20T12:59:13;28.03;;;13.37;;
19519;SDS011;9904;52.246;20.898;2023-12-20T13:01:39;25.03;;;14.00;;
19519;SDS011;9904;52.246;20.898;2023-12-20T13:04:06;26.70;;;13.77;;
19519;SDS011;9904;52.246;20.898;2023-12-20T13:06:37;28.90;;;14.50;;
19519;SDS011;9904;52.246;20.898;2023-12-20T13:09:04;28.73;;;13.90;;
19519;SDS011;9904;52.246;20.898;2023-12-20T13:11:31;22.77;;;13.33;;
19519;SDS011;9904;52.246;20.898;2023-12-20T13:13:57;25.37;;;13.20;;
19519;SDS011;9904;52.246;20.898;2023-12-20T13:16:24;25.60;;;13.17;;
19519;SDS011;9904;52.246;20.898;2023-12-20T13:18:51;27.53;;;12.57;;
19519;SDS011;9904;52.246;20.898;2023-12-20T13:21:18;23.90;;;13.20;;
19519;SDS011;9904;52.246;20.898;2023-12-20T13:23:44;23.33;;;12.03;;
19519;SDS011;9904;52.246;20.898;2023-12-20T13:26:11;25.47;;;12.93;;
19519;SDS011;9904;52.246;20.898;2023-12-20T13:28:37;25.00;;;13.13;;
19519;SDS011;9904;52.246;20.898;2023-12-20T13:31:04;22.80;;;11.30;;
19519;SDS011;9904;52.246;20.898;2023-12-20T13:33:31;21.63;;;10.97;;
19519;SDS011;9904;52.246;20.898;2023-12-20T13:35:57;20.73;;;10.93;;
19519;SDS011;9904;52.246;20.898;2023-12-20T13:38:27;21.30;;;11.40;;
19519;SDS011;9904;52.246;20.898;2023-12-20T13:40:53;19.90;;;10.63;;
19519;SDS011;9904;52.246;20.898;2023-12-20T13:43:20;22.47;;;10.37;;
19519;SDS011;9904;52.246;20.898;2023-12-20T13:45:48;20.73;;;11.37;;
19519;SDS011;9904;52.246;20.898;2023-12-20T13:48:15;20.73;;;10.03;;
19519;SDS011;9904;52.246;20.898;2023-12-20T13:50:42;21.50;;;11.33;;
19519;SDS011;9904;52.246;20.898;2023-12-20T13:53:08;22.37;;;10.80;;
19519;SDS011;9904;52.246;20.898;2023-12-20T13:55:35;26.93;;;12.53;;
19519;SDS011;9904;52.246;20.898;2023-12-20T13:58:01;26.17;;;11.53;;
19519;SDS011;9904;52.246;20.898;2023-12-20T14:00:29;23.67;;;11.57;;
19519;SDS011;9904;52.246;20.898;2023-12-20T14:02:55;20.77;;;10.43;;
19519;SDS011;9904;52.246;20.898;2023-12-20T14:05:23;24.83;;;10.80;;
19519;SDS011;9904;52.246;20.898;2023-12-20T14:07:55;18.60;;;9.27;;
19519;SDS011;9904;52.246;20.898;2023-12-20T14:10:24;21.03;;;9.80;;
19519;SDS011;9904;52.246;20.898;2023-12-20T14:12:55;16.17;;;9.77;;
19519;SDS011;9904;52.246;20.898;2023-12-20T14:15:22;15.17;;;9.10;;
19519;SDS011;9904;52.246;20.898;2023-12-20T14:17:52;17.13;;;9.20;;
19519;SDS011;9904;52.246;20.898;2023-12-20T14:20:19;16.80;;;8.40;;
19519;SDS011;9904;52.246;20.898;2023-12-20T14:22:46;14.17;;;8.03;;
19519;SDS011;9904;52.246;20.898;2023-12-20T14:25:13;13.67;;;7.20;;
19519;SDS011;9904;52.246;20.898;2023-12-20T14:27:41;11.80;;;7.10;;
19519;SDS011;9904;52.246;20.898;2023-12-20T14:30:11;12.90;;;6.93;;
19519;SDS011;9904;52.246;20.898;2023-12-20T14:32:40;14.47;;;7.40;;
19519;SDS011;9904;52.246;20.898;2023-12-20T14:35:07;12.40;;;6.43;;